THK374 EKBI-ESGG
Flight info
| Callsign | THK374 |
|---|---|
| Flight time | 0h 34m |
| Altitude | 27000 |
| Route | ABINO DCT GOTEX N873 LOBBI |
| Aircraft | A400/H-SDE2E3FGHIJ4J5M1RWXY/LB1D1 |
Departure
| Time | 2026-05-04 09:25 |
|---|---|
| Airport | Billund Airport (EKBI) |
Arrival
| Time | 2026-05-04 10:00 |
|---|---|
| Airport | Göteborg Landvetter Airport (ESGG) |
| Time | Latitude | Longitude | Altitude | Speed | Heading |
|---|---|---|---|---|---|
| 2026-05-04 09:14 | 55.73810 | 9.13985 | 232 ft | 0 kts | 46° |
| 2026-05-04 09:22 | 55.73843 | 9.14088 | 231 ft | 19 kts | 72° |
| 2026-05-04 09:22 | 55.73862 | 9.14424 | 235 ft | 33 kts | 83° |
| 2026-05-04 09:22 | 55.73957 | 9.14874 | 238 ft | 44 kts | 61° |
| 2026-05-04 09:22 | 55.74041 | 9.15423 | 239 ft | 51 kts | 85° |
| 2026-05-04 09:23 | 55.74056 | 9.16078 | 243 ft | 52 kts | 88° |
| 2026-05-04 09:23 | 55.74070 | 9.16727 | 252 ft | 65 kts | 87° |
| 2026-05-04 09:23 | 55.74092 | 9.17411 | 252 ft | 46 kts | 86° |
| 2026-05-04 09:23 | 55.74099 | 9.17893 | 255 ft | 32 kts | 88° |
| 2026-05-04 09:25 | 55.78995 | 9.15194 | 4593 ft | 256 kts | 41° |
| 2026-05-04 09:25 | 55.80342 | 9.17386 | 4953 ft | 268 kts | 43° |
| 2026-05-04 09:26 | 55.81719 | 9.19648 | 5006 ft | 270 kts | 42° |
| 2026-05-04 09:26 | 55.83108 | 9.21892 | 5001 ft | 270 kts | 41° |
| 2026-05-04 09:26 | 55.84508 | 9.24124 | 5000 ft | 270 kts | 41° |
| 2026-05-04 09:26 | 55.85913 | 9.26346 | 5000 ft | 270 kts | 41° |
| 2026-05-04 09:27 | 55.87215 | 9.28748 | 4999 ft | 270 kts | 53° |
| 2026-05-04 09:27 | 55.88031 | 9.31751 | 5002 ft | 271 kts | 72° |
| 2026-05-04 09:27 | 55.88520 | 9.34984 | 5000 ft | 271 kts | 76° |
| 2026-05-04 09:27 | 55.88943 | 9.38254 | 5000 ft | 271 kts | 77° |
| 2026-05-04 09:28 | 55.89358 | 9.41522 | 5000 ft | 271 kts | 77° |
| 2026-05-04 09:28 | 55.89778 | 9.44789 | 5000 ft | 271 kts | 77° |
| 2026-05-04 09:28 | 55.90198 | 9.48031 | 5034 ft | 275 kts | 77° |
| 2026-05-04 09:28 | 55.90651 | 9.51506 | 5639 ft | 294 kts | 77° |
| 2026-05-04 09:29 | 55.91107 | 9.55003 | 6944 ft | 289 kts | 77° |
| 2026-05-04 09:29 | 55.91557 | 9.58449 | 8470 ft | 283 kts | 77° |
| 2026-05-04 09:29 | 55.92003 | 9.61871 | 9849 ft | 285 kts | 77° |
| 2026-05-04 09:29 | 55.92459 | 9.65372 | 11026 ft | 295 kts | 77° |
| 2026-05-04 09:30 | 55.92928 | 9.68987 | 12117 ft | 304 kts | 77° |
| 2026-05-04 09:30 | 55.93410 | 9.72704 | 13246 ft | 311 kts | 77° |
| 2026-05-04 09:30 | 55.93900 | 9.76495 | 14375 ft | 316 kts | 77° |
| 2026-05-04 09:30 | 55.94397 | 9.80355 | 15479 ft | 322 kts | 77° |
| 2026-05-04 09:31 | 55.94902 | 9.84282 | 16565 ft | 328 kts | 77° |
| 2026-05-04 09:31 | 55.95415 | 9.88283 | 17637 ft | 333 kts | 77° |
| 2026-05-04 09:31 | 55.95972 | 9.92334 | 18679 ft | 339 kts | 73° |
| 2026-05-04 09:31 | 55.96860 | 9.96259 | 19698 ft | 345 kts | 62° |
| 2026-05-04 09:32 | 55.98247 | 9.99779 | 20701 ft | 350 kts | 47° |
| 2026-05-04 09:32 | 56.00090 | 10.02639 | 21667 ft | 355 kts | 36° |
| 2026-05-04 09:34 | 56.16308 | 10.18931 | 26584 ft | 390 kts | 28° |
| 2026-05-04 09:34 | 56.18704 | 10.21326 | 26926 ft | 400 kts | 29° |
| 2026-05-04 09:34 | 56.21176 | 10.23815 | 27001 ft | 415 kts | 29° |
| 2026-05-04 09:34 | 56.23718 | 10.26386 | 27002 ft | 422 kts | 29° |
| 2026-05-04 09:35 | 56.26276 | 10.28980 | 27001 ft | 423 kts | 29° |
| 2026-05-04 09:35 | 56.28843 | 10.31587 | 27001 ft | 424 kts | 29° |
| 2026-05-04 09:35 | 56.31413 | 10.34200 | 26999 ft | 424 kts | 29° |
| 2026-05-04 09:35 | 56.33988 | 10.36821 | 26999 ft | 424 kts | 29° |
| 2026-05-04 09:37 | 56.51746 | 10.55718 | 27001 ft | 424 kts | 33° |
| 2026-05-04 09:37 | 56.54193 | 10.58713 | 27018 ft | 424 kts | 34° |
| 2026-05-04 09:38 | 56.56623 | 10.61729 | 27086 ft | 424 kts | 34° |
| 2026-05-04 09:38 | 56.59053 | 10.64754 | 27162 ft | 424 kts | 34° |
| 2026-05-04 09:38 | 56.61485 | 10.67778 | 27231 ft | 424 kts | 34° |
| 2026-05-04 09:38 | 56.63917 | 10.70805 | 27290 ft | 424 kts | 34° |
| 2026-05-04 09:39 | 56.66347 | 10.73833 | 27348 ft | 423 kts | 34° |
| 2026-05-04 09:39 | 56.68728 | 10.76808 | 27127 ft | 405 kts | 34° |
| 2026-05-04 09:39 | 56.71026 | 10.79686 | 26198 ft | 400 kts | 34° |
| 2026-05-04 09:39 | 56.73337 | 10.82585 | 24885 ft | 407 kts | 34° |
| 2026-05-04 09:40 | 56.75674 | 10.85522 | 23735 ft | 408 kts | 34° |
| 2026-05-04 09:40 | 56.77996 | 10.88445 | 22697 ft | 404 kts | 34° |
| 2026-05-04 09:40 | 56.80295 | 10.91343 | 21696 ft | 398 kts | 34° |
| 2026-05-04 09:40 | 56.82556 | 10.94199 | 20731 ft | 393 kts | 34° |
| 2026-05-04 09:41 | 56.84788 | 10.97021 | 19748 ft | 387 kts | 34° |
| 2026-05-04 09:42 | 56.99500 | 11.15732 | 13229 ft | 351 kts | 34° |
| 2026-05-04 09:43 | 57.01489 | 11.18275 | 12297 ft | 346 kts | 34° |
| 2026-05-04 09:43 | 57.03452 | 11.20789 | 11388 ft | 342 kts | 34° |
| 2026-05-04 09:43 | 57.05394 | 11.23278 | 10601 ft | 339 kts | 34° |
| 2026-05-04 09:43 | 57.07318 | 11.25749 | 10137 ft | 337 kts | 34° |
| 2026-05-04 09:44 | 57.09231 | 11.28207 | 10013 ft | 335 kts | 34° |
| 2026-05-04 09:44 | 57.11142 | 11.30667 | 9997 ft | 335 kts | 34° |
| 2026-05-04 09:44 | 57.13050 | 11.33126 | 10003 ft | 335 kts | 34° |
| 2026-05-04 09:46 | 57.26413 | 11.50436 | 9998 ft | 335 kts | 35° |
| 2026-05-04 09:46 | 57.28316 | 11.52913 | 10000 ft | 335 kts | 35° |
| 2026-05-04 09:46 | 57.30223 | 11.55401 | 9998 ft | 335 kts | 35° |
| 2026-05-04 09:47 | 57.32127 | 11.57886 | 10001 ft | 335 kts | 35° |
| 2026-05-04 09:47 | 57.34011 | 11.60349 | 9998 ft | 335 kts | 35° |
| 2026-05-04 09:49 | 57.47335 | 11.77853 | 10001 ft | 335 kts | 35° |
| 2026-05-04 09:49 | 57.49235 | 11.80363 | 10003 ft | 335 kts | 35° |
| 2026-05-04 09:49 | 57.51134 | 11.82875 | 9785 ft | 335 kts | 35° |
| 2026-05-04 09:51 | 57.62380 | 11.97814 | 8374 ft | 329 kts | 35° |
| 2026-05-04 09:51 | 57.64235 | 12.00288 | 8126 ft | 327 kts | 35° |
| 2026-05-04 09:51 | 57.66082 | 12.02757 | 8009 ft | 326 kts | 35° |
| 2026-05-04 09:51 | 57.67923 | 12.05220 | 7999 ft | 326 kts | 35° |
| 2026-05-04 09:52 | 57.69767 | 12.07689 | 8001 ft | 326 kts | 35° |
| 2026-05-04 09:52 | 57.71612 | 12.10164 | 8003 ft | 326 kts | 35° |
| 2026-05-04 09:52 | 57.73452 | 12.12635 | 8091 ft | 326 kts | 35° |
| 2026-05-04 09:52 | 57.75288 | 12.15105 | 8187 ft | 319 kts | 35° |
| 2026-05-04 09:53 | 57.77027 | 12.17446 | 8086 ft | 298 kts | 35° |
| 2026-05-04 09:53 | 57.78674 | 12.19668 | 7681 ft | 286 kts | 35° |
| 2026-05-04 09:53 | 57.80282 | 12.21801 | 7187 ft | 280 kts | 33° |
| 2026-05-04 09:53 | 57.81955 | 12.23641 | 6652 ft | 277 kts | 28° |
| 2026-05-04 09:54 | 57.83617 | 12.25308 | 6206 ft | 271 kts | 27° |
| 2026-05-04 09:54 | 57.85224 | 12.26982 | 5976 ft | 258 kts | 33° |
| 2026-05-04 09:54 | 57.86436 | 12.29372 | 5654 ft | 252 kts | 61° |
| 2026-05-04 09:54 | 57.86903 | 12.32508 | 5305 ft | 250 kts | 83° |
| 2026-05-04 09:55 | 57.86971 | 12.35746 | 4959 ft | 248 kts | 96° |
| 2026-05-04 09:55 | 57.86427 | 12.38769 | 4614 ft | 246 kts | 124° |
| 2026-05-04 09:55 | 57.85179 | 12.40827 | 4450 ft | 237 kts | 154° |
| 2026-05-04 09:55 | 57.83621 | 12.41566 | 4324 ft | 226 kts | 174° |
| 2026-05-04 09:56 | 57.82106 | 12.41635 | 4150 ft | 211 kts | 185° |
| 2026-05-04 09:56 | 57.80709 | 12.41067 | 3916 ft | 201 kts | 200° |
| 2026-05-04 09:56 | 57.79462 | 12.40013 | 3570 ft | 192 kts | 207° |
| 2026-05-04 09:56 | 57.78296 | 12.38933 | 3048 ft | 182 kts | 207° |
| 2026-05-04 09:57 | 57.77189 | 12.37920 | 2743 ft | 173 kts | 206° |
| 2026-05-04 09:57 | 57.76114 | 12.36947 | 2685 ft | 171 kts | 206° |
| 2026-05-04 09:57 | 57.75038 | 12.35973 | 2624 ft | 172 kts | 206° |
| 2026-05-04 09:57 | 57.73960 | 12.34990 | 2228 ft | 172 kts | 206° |
| 2026-05-04 09:58 | 57.72888 | 12.34009 | 1743 ft | 170 kts | 206° |
| 2026-05-04 09:58 | 57.71851 | 12.33061 | 1588 ft | 168 kts | 206° |
| 2026-05-04 09:58 | 57.70798 | 12.32099 | 1413 ft | 170 kts | 206° |
| 2026-05-04 10:00 | 57.66119 | 12.28055 | 527 ft | 10 kts | 114° |
| 2026-05-04 10:00 | 57.66115 | 12.28070 | 527 ft | 0 kts | 114° |
| 2026-05-04 10:02 | 57.66848 | 12.28837 | 535 ft | 26 kts | 26° |
| 2026-05-04 10:04 | 57.67324 | 12.29660 | 541 ft | 9 kts | 145° |
| 2026-05-04 10:04 | 57.67299 | 12.29744 | 541 ft | 8 kts | 116° |
| 2026-05-04 10:04 | 57.67289 | 12.29780 | 541 ft | 0 kts | 116° |